createdAt,value
2018-02-02T00:01:31.992Z,99738.31
2018-02-02T00:03:59.567Z,99731.87
2018-02-02T00:06:27.097Z,99731.66
2018-02-02T00:08:54.617Z,99725.63
2018-02-02T00:11:22.185Z,99719.73
2018-02-02T00:13:50.713Z,99730.48
2018-02-02T00:16:18.237Z,99731.29
2018-02-02T00:18:45.786Z,99738.36
2018-02-02T00:21:13.343Z,99737.82
2018-02-02T00:23:40.850Z,99742.19
2018-02-02T00:26:08.450Z,99740.80
2018-02-02T00:28:36.086Z,99741.09
2018-02-02T00:31:03.606Z,99738.31
2018-02-02T00:33:31.510Z,99736.14
2018-02-02T00:35:59.026Z,99742.52
2018-02-02T00:38:26.533Z,99747.52
2018-02-02T00:40:54.394Z,99744.93
2018-02-02T00:43:21.900Z,99741.54
2018-02-02T00:45:49.425Z,99746.78
2018-02-02T00:48:17.277Z,99741.10
2018-02-02T00:50:50.385Z,99743.27
2018-02-02T00:53:18.235Z,99743.59
2018-02-02T00:55:45.784Z,99743.53
2018-02-02T00:58:13.666Z,99744.58
2018-02-02T01:00:41.316Z,99750.39
2018-02-02T01:03:09.096Z,99748.23
2018-02-02T01:05:36.652Z,99749.61
2018-02-02T01:08:04.223Z,99747.54
2018-02-02T01:10:31.762Z,99747.41
2018-02-02T01:12:59.543Z,99750.41
2018-02-02T01:15:27.319Z,99747.38
2018-02-02T01:17:55.182Z,99750.78
2018-02-02T01:20:22.742Z,99750.64
2018-02-02T01:22:50.353Z,99750.76
2018-02-02T01:25:17.887Z,99753.63
2018-02-02T01:27:45.439Z,99755.02
2018-02-02T01:30:13.022Z,99754.34
2018-02-02T01:32:40.610Z,99755.95
2018-02-02T01:35:08.409Z,99758.28
2018-02-02T01:37:35.961Z,99756.70
2018-02-02T01:40:03.510Z,99751.61
2018-02-02T01:42:31.021Z,99756.36
2018-02-02T01:44:58.869Z,99751.69
2018-02-02T01:47:26.397Z,99752.98
2018-02-02T01:49:53.918Z,99754.38
2018-02-02T01:52:21.481Z,99757.25
2018-02-02T01:54:49.014Z,99761.38
2018-02-02T01:57:17.485Z,99757.33
2018-02-02T01:59:45.035Z,99756.87
2018-02-02T02:02:12.614Z,99767.03
2018-02-02T02:04:40.131Z,99755.19
2018-02-02T02:07:07.709Z,99757.78
2018-02-02T02:09:35.489Z,99754.53
2018-02-02T02:12:03.022Z,99757.98
2018-02-02T02:14:30.569Z,99762.34
2018-02-02T02:16:58.090Z,99757.59
2018-02-02T02:19:25.641Z,99761.03
2018-02-02T02:21:53.238Z,99765.61
2018-02-02T02:24:20.746Z,99761.95
2018-02-02T02:26:48.270Z,99761.03
2018-02-02T02:29:15.813Z,99757.93
2018-02-02T02:31:43.334Z,99757.94
2018-02-02T02:34:10.841Z,99758.80
2018-02-02T02:36:38.398Z,99756.10
2018-02-02T02:39:05.940Z,99759.77
2018-02-02T02:41:33.470Z,99758.90
2018-02-02T02:44:01.014Z,99755.48
2018-02-02T02:46:28.556Z,99754.78
2018-02-02T02:48:56.094Z,99755.09
2018-02-02T02:51:23.671Z,99757.41
2018-02-02T02:53:51.215Z,99754.61
2018-02-02T02:56:18.736Z,99759.94
2018-02-02T02:58:46.289Z,99758.55
2018-02-02T03:01:13.866Z,99761.05
2018-02-02T03:03:41.391Z,99756.66
2018-02-02T03:06:08.922Z,99757.90
2018-02-02T03:08:36.481Z,99762.71
2018-02-02T03:11:04.020Z,99765.02
2018-02-02T03:13:31.865Z,99774.12
2018-02-02T03:15:59.409Z,99775.71
2018-02-02T03:18:26.925Z,99768.62
2018-02-02T03:20:54.469Z,99764.34
2018-02-02T03:23:22.002Z,99770.01
2018-02-02T03:25:49.534Z,99774.64
2018-02-02T03:28:17.058Z,99777.20
2018-02-02T03:30:44.628Z,99777.28
2018-02-02T03:33:12.158Z,99772.91
2018-02-02T03:35:39.709Z,99783.70
2018-02-02T03:38:07.235Z,99781.94
2018-02-02T03:40:34.769Z,99785.58
2018-02-02T03:43:02.337Z,99793.36
2018-02-02T03:45:29.874Z,99790.08
2018-02-02T03:47:57.393Z,99793.47
2018-02-02T03:50:24.942Z,99783.55
2018-02-02T03:52:52.480Z,99779.84
2018-02-02T03:55:20.002Z,99783.52
2018-02-02T03:57:47.555Z,99787.17
2018-02-02T04:00:15.321Z,99793.95
2018-02-02T04:02:42.881Z,99787.73
2018-02-02T04:05:10.445Z,99793.16
2018-02-02T04:07:37.977Z,99797.78
2018-02-02T04:10:05.558Z,99793.16
2018-02-02T04:12:33.080Z,99797.34
2018-02-02T04:15:00.625Z,99792.85
2018-02-02T04:17:28.183Z,99801.50
2018-02-02T04:19:55.958Z,99797.53
2018-02-02T04:22:23.798Z,99802.23
2018-02-02T04:24:51.344Z,99804.45
2018-02-02T04:27:18.901Z,99807.67
2018-02-02T04:29:46.446Z,99807.81
2018-02-02T04:32:14.024Z,99808.84
2018-02-02T04:34:41.580Z,99803.23
2018-02-02T04:37:09.242Z,99798.70
2018-02-02T04:39:36.763Z,99799.67
2018-02-02T04:42:04.275Z,99795.45
2018-02-02T04:44:31.853Z,99799.62
2018-02-02T04:46:59.432Z,99799.70
2018-02-02T04:49:26.991Z,99797.14
2018-02-02T04:51:54.512Z,99803.27
2018-02-02T04:54:22.057Z,99812.00
2018-02-02T04:56:49.660Z,99817.19
2018-02-02T04:59:17.265Z,99816.30
2018-02-02T05:01:44.812Z,99821.69
2018-02-02T05:04:12.611Z,99827.48
2018-02-02T05:06:40.221Z,99824.09
2018-02-02T05:09:08.039Z,99824.79
2018-02-02T05:11:35.554Z,99828.58
2018-02-02T05:14:03.081Z,99824.63
2018-02-02T05:16:30.602Z,99823.80
2018-02-02T05:18:58.211Z,99834.05
2018-02-02T05:21:25.725Z,99823.42
2018-02-02T05:23:53.313Z,99821.34
2018-02-02T05:26:20.846Z,99812.61
2018-02-02T05:28:48.641Z,99820.28
2018-02-02T05:31:16.235Z,99821.97
2018-02-02T05:33:43.762Z,99817.46
2018-02-02T05:36:11.376Z,99822.05
2018-02-02T05:38:38.915Z,99814.52
2018-02-02T05:41:06.798Z,99811.74
2018-02-02T05:43:34.610Z,99813.23
2018-02-02T05:46:02.134Z,99819.33
2018-02-02T05:48:29.784Z,99821.28
2018-02-02T05:50:57.317Z,99814.98
2018-02-02T05:53:24.986Z,99825.54
2018-02-02T05:55:52.541Z,99817.76
2018-02-02T05:58:20.058Z,99816.48
2018-02-02T06:00:47.628Z,99816.41
2018-02-02T06:03:15.174Z,99813.16
2018-02-02T06:05:42.715Z,99815.02
2018-02-02T06:08:10.630Z,99814.77
2018-02-02T06:10:38.133Z,99815.70
2018-02-02T06:13:05.723Z,99821.09
2018-02-02T06:15:33.289Z,99815.23
2018-02-02T06:18:00.842Z,99819.16
2018-02-02T06:20:28.408Z,99830.27
2018-02-02T06:22:56.177Z,99829.41
2018-02-02T06:25:25.038Z,99829.67
2018-02-02T06:27:52.690Z,99826.69
2018-02-02T06:30:20.235Z,99827.25
2018-02-02T06:32:47.814Z,99824.52
2018-02-02T06:35:15.362Z,99827.72
2018-02-02T06:37:42.902Z,99826.31
2018-02-02T06:40:10.474Z,99827.12
2018-02-02T06:42:38.007Z,99822.48
2018-02-02T06:45:05.558Z,99829.71
2018-02-02T06:47:33.081Z,99827.23
2018-02-02T06:50:00.634Z,99833.07
2018-02-02T06:52:28.161Z,99837.55
2018-02-02T06:54:56.011Z,99840.61
2018-02-02T06:57:23.588Z,99842.50
2018-02-02T06:59:51.443Z,99839.89
2018-02-02T07:02:18.983Z,99843.75
2018-02-02T07:04:46.514Z,99844.70
2018-02-02T07:07:14.433Z,99853.81
2018-02-02T07:09:42.227Z,99844.61
2018-02-02T07:12:09.768Z,99855.27
2018-02-02T07:14:37.362Z,99853.59
2018-02-02T07:17:04.881Z,99854.36
2018-02-02T07:19:32.454Z,99855.13
2018-02-02T07:22:00.056Z,99852.14
2018-02-02T07:24:27.680Z,99849.52
2018-02-02T07:26:55.241Z,99859.74
2018-02-02T07:29:23.040Z,99857.41
2018-02-02T07:31:51.284Z,99855.36
2018-02-02T07:34:18.944Z,99859.72
2018-02-02T07:36:46.482Z,99858.52
2018-02-02T07:39:14.362Z,99853.57
2018-02-02T07:41:42.386Z,99858.38
2018-02-02T07:44:09.948Z,99862.58
2018-02-02T07:46:37.475Z,99865.09
2018-02-02T07:49:05.194Z,99866.45
2018-02-02T07:51:32.762Z,99859.98
2018-02-02T07:54:00.283Z,99859.42
2018-02-02T07:56:27.855Z,99861.19
2018-02-02T07:58:55.383Z,99861.60
2018-02-02T08:01:22.987Z,99857.66
2018-02-02T08:03:50.512Z,99862.27
2018-02-02T08:06:18.130Z,99867.42
2018-02-02T08:08:45.974Z,99864.97
2018-02-02T08:11:13.787Z,99868.43
2018-02-02T08:13:41.394Z,99866.31
2018-02-02T08:16:08.935Z,99864.73
2018-02-02T08:18:36.479Z,99867.91
2018-02-02T08:21:04.234Z,99867.47
2018-02-02T08:23:31.789Z,99864.28
2018-02-02T08:25:59.308Z,99859.81
2018-02-02T08:28:27.062Z,99858.80
2018-02-02T08:30:54.620Z,99863.89
2018-02-02T08:33:22.257Z,99864.45
2018-02-02T08:35:50.100Z,99865.66
2018-02-02T08:38:17.937Z,99868.70
2018-02-02T08:40:45.729Z,99869.81
2018-02-02T08:43:13.236Z,99872.55
2018-02-02T08:45:40.807Z,99871.68
2018-02-02T08:48:08.350Z,99870.54
2018-02-02T08:50:35.892Z,99870.61
2018-02-02T08:53:03.420Z,99872.02
2018-02-02T08:55:31.312Z,99876.06
2018-02-02T08:57:59.174Z,99876.06
2018-02-02T09:00:26.786Z,99875.84
2018-02-02T09:02:54.607Z,99876.84
2018-02-02T09:05:22.158Z,99878.71
2018-02-02T09:07:49.684Z,99878.85
2018-02-02T09:10:17.487Z,99888.80
2018-02-02T09:12:45.028Z,99888.16
2018-02-02T09:15:12.568Z,99885.56
2018-02-02T09:17:40.122Z,99889.84
2018-02-02T09:20:07.760Z,99884.38
2018-02-02T09:22:35.288Z,99891.73
2018-02-02T09:25:03.155Z,99884.05
2018-02-02T09:27:30.914Z,99884.05
2018-02-02T09:29:58.480Z,99883.41
2018-02-02T09:32:26.007Z,99880.45
2018-02-02T09:34:53.549Z,99882.31
2018-02-02T09:37:21.062Z,99879.77
2018-02-02T09:39:48.602Z,99885.11
2018-02-02T09:42:16.199Z,99887.08
2018-02-02T09:44:43.758Z,99892.61
2018-02-02T09:47:11.276Z,99894.28
2018-02-02T09:49:38.802Z,99891.86
2018-02-02T09:52:06.361Z,99891.34
2018-02-02T09:54:33.869Z,99887.42
2018-02-02T09:57:01.453Z,99890.56
2018-02-02T09:59:29.141Z,99890.29
2018-02-02T10:01:57.350Z,99890.70
2018-02-02T10:04:25.150Z,99885.44
2018-02-02T10:06:52.917Z,99877.78
2018-02-02T10:09:20.463Z,99875.70
2018-02-02T10:11:48.347Z,99881.25
2018-02-02T10:14:15.926Z,99876.75
2018-02-02T10:16:43.499Z,99874.73
2018-02-02T10:19:11.042Z,99874.20
2018-02-02T10:21:38.630Z,99866.47
2018-02-02T10:24:07.499Z,99871.11
2018-02-02T10:26:35.053Z,99866.56
2018-02-02T10:29:02.590Z,99867.68
2018-02-02T10:31:30.172Z,99861.95
2018-02-02T10:33:57.929Z,99858.14
2018-02-02T10:36:25.592Z,99856.30
2018-02-02T10:38:53.125Z,99866.00
2018-02-02T10:41:20.698Z,99854.30
2018-02-02T10:43:48.233Z,99851.17
2018-02-02T10:46:15.775Z,99854.30
2018-02-02T10:48:43.314Z,99857.09
2018-02-02T10:51:10.843Z,99850.88
2018-02-02T10:53:38.394Z,99850.88
2018-02-02T10:56:05.996Z,99851.88
2018-02-02T10:58:33.559Z,99850.15
2018-02-02T11:01:06.752Z,99842.57
2018-02-02T11:03:34.853Z,99835.16
2018-02-02T11:06:02.580Z,99839.59
2018-02-02T11:08:30.146Z,99838.84
2018-02-02T11:10:57.709Z,99838.44
2018-02-02T11:13:25.383Z,99836.70
2018-02-02T11:15:53.024Z,99838.53
2018-02-02T11:18:20.545Z,99837.66
2018-02-02T11:20:48.346Z,99838.22
2018-02-02T11:23:16.212Z,99838.81
2018-02-02T11:25:43.779Z,99835.34
2018-02-02T11:28:11.503Z,99825.50
2018-02-02T11:30:39.029Z,99824.98
2018-02-02T11:33:06.740Z,99818.55
2018-02-02T11:35:34.346Z,99824.09
2018-02-02T11:38:01.924Z,99822.34
2018-02-02T11:40:29.669Z,99816.98
2018-02-02T11:42:57.508Z,99818.13
2018-02-02T11:45:25.487Z,99813.93
2018-02-02T11:47:53.071Z,99817.89
2018-02-02T11:50:20.907Z,99822.20
2018-02-02T11:52:48.421Z,99821.28
2018-02-02T11:55:16.351Z,99824.51
2018-02-02T11:57:43.873Z,99819.94
2018-02-02T12:00:11.445Z,99816.52
2018-02-02T12:02:38.994Z,99821.88
2018-02-02T12:05:06.498Z,99815.39
2018-02-02T12:07:34.084Z,99814.28
2018-02-02T12:10:01.608Z,99820.73
2018-02-02T12:12:29.317Z,99814.38
2018-02-02T12:14:56.882Z,99814.40
2018-02-02T12:17:24.482Z,99811.14
2018-02-02T12:19:54.306Z,99807.36
2018-02-02T12:22:27.408Z,99815.09
2018-02-02T12:28:01.569Z,99814.09
2018-02-02T12:30:43.993Z,99815.82
2018-02-02T12:33:16.205Z,99813.93
2018-02-02T12:35:49.149Z,99809.31
2018-02-02T12:38:16.763Z,99808.63
2018-02-02T12:40:44.359Z,99810.45
2018-02-02T12:43:11.928Z,99806.06
2018-02-02T12:45:39.428Z,99807.88
2018-02-02T12:48:11.890Z,99812.43
2018-02-02T12:50:51.174Z,99809.12
2018-02-02T12:53:18.760Z,99804.67
2018-02-02T12:55:46.577Z,99808.72
2018-02-02T12:58:14.454Z,99807.00
2018-02-02T13:00:42.032Z,99809.30
2018-02-02T13:03:09.547Z,99802.70
2018-02-02T13:05:37.115Z,99808.89
2018-02-02T13:08:04.636Z,99806.91
2018-02-02T13:10:32.190Z,99800.38
2018-02-02T13:12:59.726Z,99796.24
2018-02-02T13:15:27.589Z,99805.67
2018-02-02T13:17:55.223Z,99801.61
2018-02-02T13:20:22.748Z,99797.06
2018-02-02T13:22:50.320Z,99805.66
2018-02-02T13:25:17.840Z,99806.73
2018-02-02T13:27:45.416Z,99802.50
2018-02-02T13:30:12.935Z,99807.22
2018-02-02T13:32:40.543Z,99799.64
2018-02-02T13:35:08.065Z,99796.84
2018-02-02T13:37:35.621Z,99797.63
2018-02-02T13:40:03.142Z,99799.89
2018-02-02T13:42:30.767Z,99801.44
2018-02-02T13:44:58.302Z,99790.55
2018-02-02T13:47:25.857Z,99802.94
2018-02-02T13:49:53.441Z,99792.52
2018-02-02T13:52:20.975Z,99792.02
2018-02-02T13:54:48.509Z,99788.95
2018-02-02T13:57:16.319Z,99791.93
2018-02-02T13:59:43.857Z,99790.20
2018-02-02T14:02:11.642Z,99800.12
2018-02-02T14:04:39.219Z,99797.64
2018-02-02T14:07:06.744Z,99796.42
2018-02-02T14:09:34.408Z,99799.70
2018-02-02T14:12:02.187Z,99795.06
2018-02-02T14:14:29.874Z,99789.53
2018-02-02T14:16:57.445Z,99795.67
2018-02-02T14:19:24.966Z,99791.59
2018-02-02T14:21:52.493Z,99793.34
2018-02-02T14:24:20.012Z,99790.45
2018-02-02T14:26:47.572Z,99788.80
2018-02-02T14:29:15.353Z,99797.74
2018-02-02T14:31:43.058Z,99804.99
2018-02-02T14:34:10.614Z,99798.23
2018-02-02T14:36:38.226Z,99795.58
2018-02-02T14:39:05.786Z,99799.05
2018-02-02T14:41:33.322Z,99800.03
2018-02-02T14:44:01.047Z,99804.83
2018-02-02T14:46:28.606Z,99804.83
2018-02-02T14:48:56.167Z,99800.53
2018-02-02T14:51:23.986Z,99806.70
2018-02-02T14:53:51.556Z,99806.72
2018-02-02T14:56:19.114Z,99807.53
2018-02-02T14:58:46.976Z,99802.76
2018-02-02T15:01:14.500Z,99798.80
2018-02-02T15:03:42.400Z,99805.80
2018-02-02T15:06:09.954Z,99811.44
2018-02-02T15:08:37.508Z,99807.38
2018-02-02T15:11:05.036Z,99814.95
2018-02-02T15:13:32.614Z,99806.55
2018-02-02T15:16:00.145Z,99812.16
2018-02-02T15:18:27.749Z,99813.25
2018-02-02T15:20:55.528Z,99812.45
2018-02-02T15:23:23.114Z,99815.77
2018-02-02T15:25:50.698Z,99810.98
2018-02-02T15:28:18.514Z,99809.02
2018-02-02T15:30:46.061Z,99809.92
2018-02-02T15:33:13.586Z,99813.02
2018-02-02T15:35:41.634Z,99811.95
2018-02-02T15:38:09.380Z,99825.23
2018-02-02T15:40:36.965Z,99818.61
2018-02-02T15:43:04.483Z,99822.28
2018-02-02T15:45:31.997Z,99824.05
2018-02-02T15:47:59.577Z,99823.45
2018-02-02T15:50:27.113Z,99827.75
2018-02-02T15:52:54.667Z,99825.64
2018-02-02T15:55:22.504Z,99829.03
2018-02-02T15:57:50.078Z,99830.46
2018-02-02T16:00:17.663Z,99828.58
2018-02-02T16:02:45.214Z,99834.37
2018-02-02T16:05:12.806Z,99832.80
2018-02-02T16:07:40.353Z,99835.52
2018-02-02T16:10:07.914Z,99833.78
2018-02-02T16:12:35.458Z,99836.45
2018-02-02T16:15:03.030Z,99840.64
2018-02-02T16:17:30.559Z,99837.41
2018-02-02T16:19:58.131Z,99844.65
2018-02-02T16:22:25.686Z,99855.06
2018-02-02T16:24:53.534Z,99850.08
2018-02-02T16:27:21.165Z,99851.97
2018-02-02T16:29:48.709Z,99849.78
2018-02-02T16:32:16.246Z,99852.94
2018-02-02T16:34:43.767Z,99854.98
2018-02-02T16:37:11.293Z,99861.92
2018-02-02T16:39:39.209Z,99866.30
2018-02-02T16:42:06.827Z,99869.02
2018-02-02T16:44:34.392Z,99865.77
2018-02-02T16:47:01.905Z,99868.48
2018-02-02T16:49:29.446Z,99867.66
2018-02-02T16:51:56.976Z,99866.03
2018-02-02T16:54:24.583Z,99864.66
2018-02-02T16:56:52.441Z,99860.70
2018-02-02T16:59:20.010Z,99868.52
2018-02-02T17:01:47.866Z,99865.45
2018-02-02T17:04:15.541Z,99863.84
2018-02-02T17:06:43.181Z,99865.13
2018-02-02T17:09:10.950Z,99871.73
2018-02-02T17:11:38.550Z,99869.92
2018-02-02T17:14:06.148Z,99872.78
2018-02-02T17:16:33.728Z,99874.94
2018-02-02T17:19:01.358Z,99876.62
2018-02-02T17:21:28.912Z,99872.73
2018-02-02T17:23:56.434Z,99868.37
2018-02-02T17:26:23.972Z,99865.13
2018-02-02T17:28:51.543Z,99870.03
2018-02-02T17:31:19.220Z,99865.73
2018-02-02T17:33:46.796Z,99873.31
2018-02-02T17:36:14.328Z,99865.42
2018-02-02T17:38:41.952Z,99870.95
2018-02-02T17:41:09.487Z,99874.92
2018-02-02T17:43:36.997Z,99881.02
2018-02-02T17:46:04.881Z,99883.44
2018-02-02T17:48:32.601Z,99878.13
2018-02-02T17:51:00.141Z,99880.66
2018-02-02T17:53:27.989Z,99877.98
2018-02-02T17:55:55.575Z,99875.93
2018-02-02T17:58:23.219Z,99875.34
2018-02-02T18:00:53.345Z,99875.34
2018-02-02T18:03:20.886Z,99875.44
2018-02-02T18:05:48.428Z,99874.02
2018-02-02T18:08:16.438Z,99883.18
2018-02-02T18:10:43.968Z,99877.95
2018-02-02T18:13:11.526Z,99882.44
2018-02-02T18:15:39.043Z,99877.73
2018-02-02T18:18:06.604Z,99880.86
2018-02-02T18:20:34.152Z,99878.16
2018-02-02T18:23:01.674Z,99881.63
2018-02-02T18:25:29.230Z,99877.56
2018-02-02T18:27:56.746Z,99876.05
2018-02-02T18:30:24.294Z,99871.52
2018-02-02T18:32:52.116Z,99878.49
2018-02-02T18:35:19.663Z,99883.94
2018-02-02T18:37:47.194Z,99873.71
2018-02-02T18:40:14.712Z,99878.53
2018-02-02T18:42:42.262Z,99875.52
2018-02-02T18:45:09.861Z,99878.49
2018-02-02T18:47:37.415Z,99881.36
2018-02-02T18:50:04.945Z,99881.09
2018-02-02T18:52:32.917Z,99880.25
2018-02-02T18:55:00.427Z,99875.97
2018-02-02T18:57:28.234Z,99881.14
2018-02-02T18:59:55.787Z,99878.55
2018-02-02T19:02:23.319Z,99876.87
2018-02-02T19:04:50.881Z,99876.42
2018-02-02T19:07:18.442Z,99870.61
2018-02-02T19:09:46.060Z,99871.77
2018-02-02T19:12:13.633Z,99877.54
2018-02-02T19:14:41.439Z,99869.36
2018-02-02T19:17:08.987Z,99867.59
2018-02-02T19:19:36.801Z,99863.31
2018-02-02T19:22:04.338Z,99863.81
2018-02-02T19:24:31.949Z,99864.42
2018-02-02T19:26:59.489Z,99867.47
2018-02-02T19:29:27.032Z,99862.91
2018-02-02T19:31:54.565Z,99861.00
2018-02-02T19:34:22.097Z,99861.42
2018-02-02T19:36:49.684Z,99863.42
2018-02-02T19:39:17.252Z,99867.31
2018-02-02T19:41:44.797Z,99861.84
2018-02-02T19:44:12.392Z,99862.52
2018-02-02T19:46:40.022Z,99865.88
2018-02-02T19:49:07.659Z,99861.05
2018-02-02T19:51:35.221Z,99866.33
2018-02-02T19:54:02.778Z,99865.91
2018-02-02T19:56:30.622Z,99864.75
2018-02-02T19:58:58.398Z,99866.89
2018-02-02T20:01:25.987Z,99860.90
2018-02-02T20:03:54.247Z,99859.20
2018-02-02T20:06:21.893Z,99865.31
2018-02-02T20:08:50.723Z,99868.09
2018-02-02T20:11:18.335Z,99869.88
2018-02-02T20:13:46.198Z,99862.45
2018-02-02T20:16:13.782Z,99868.70
2018-02-02T20:18:41.348Z,99862.38
2018-02-02T20:21:08.903Z,99863.77
2018-02-02T20:23:36.452Z,99869.53
2018-02-02T20:26:03.977Z,99873.91
2018-02-02T20:28:31.517Z,99873.83
2018-02-02T20:30:59.056Z,99879.26
2018-02-02T20:33:26.617Z,99874.89
2018-02-02T20:35:54.162Z,99872.52
2018-02-02T20:38:22.011Z,99873.16
2018-02-02T20:40:49.621Z,99872.92
2018-02-02T20:43:17.183Z,99873.72
2018-02-02T20:45:44.825Z,99871.80
2018-02-02T20:48:12.405Z,99880.28
2018-02-02T20:50:40.037Z,99878.63
2018-02-02T20:53:07.592Z,99880.06
2018-02-02T20:55:35.167Z,99880.63
2018-02-02T20:58:02.721Z,99875.34
2018-02-02T21:00:30.267Z,99879.23
2018-02-02T21:02:57.837Z,99882.66
2018-02-02T21:05:25.376Z,99879.11
2018-02-02T21:07:52.916Z,99882.44
2018-02-02T21:10:20.614Z,99887.86
2018-02-02T21:12:48.161Z,99879.11
2018-02-02T21:15:15.684Z,99881.38
2018-02-02T21:17:43.306Z,99875.69
2018-02-02T21:20:10.874Z,99881.43
2018-02-02T21:22:38.419Z,99882.97
2018-02-02T21:25:05.961Z,99879.20
2018-02-02T21:27:33.507Z,99879.02
2018-02-02T21:30:01.031Z,99874.93
2018-02-02T21:32:28.563Z,99872.30
2018-02-02T21:34:56.100Z,99876.86
2018-02-02T21:37:23.768Z,99885.69
2018-02-02T21:39:51.321Z,99876.03
2018-02-02T21:42:19.098Z,99888.06
2018-02-02T21:44:46.663Z,99880.97
2018-02-02T21:47:14.530Z,99884.22
2018-02-02T21:49:42.082Z,99882.19
2018-02-02T21:52:09.862Z,99881.08
2018-02-02T21:54:37.381Z,99880.07
2018-02-02T21:57:05.014Z,99887.95
2018-02-02T21:59:32.621Z,99887.19
2018-02-02T22:02:00.188Z,99885.08
2018-02-02T22:04:27.748Z,99885.30
2018-02-02T22:06:55.310Z,99886.10
2018-02-02T22:09:22.972Z,99889.64
2018-02-02T22:11:50.603Z,99892.39
2018-02-02T22:14:18.190Z,99887.99
2018-02-02T22:16:46.080Z,99900.31
2018-02-02T22:19:13.945Z,99897.94
2018-02-02T22:21:41.521Z,99905.03
2018-02-02T22:24:09.065Z,99903.19
2018-02-02T22:26:36.838Z,99903.31
2018-02-02T22:29:04.362Z,99903.91
2018-02-02T22:31:31.907Z,99910.32
2018-02-02T22:33:59.528Z,99911.15
2018-02-02T22:36:27.079Z,99913.23
2018-02-02T22:38:54.592Z,99910.86
2018-02-02T22:41:22.170Z,99915.08
2018-02-02T22:43:49.741Z,99914.20
2018-02-02T22:46:17.271Z,99911.30
2018-02-02T22:48:44.835Z,99905.07
2018-02-02T22:51:12.350Z,99900.42
2018-02-02T22:53:39.882Z,99901.07
2018-02-02T22:56:07.428Z,99899.28
2018-02-02T22:58:34.971Z,99901.85
2018-02-02T23:01:02.509Z,99897.09
2018-02-02T23:03:30.047Z,99899.95
2018-02-02T23:05:57.586Z,99908.45
2018-02-02T23:08:25.109Z,99904.78
2018-02-02T23:10:52.931Z,99907.31
2018-02-02T23:13:20.791Z,99902.48
2018-02-02T23:15:48.288Z,99906.00
2018-02-02T23:18:16.124Z,99909.73
2018-02-02T23:20:43.885Z,99904.95
2018-02-02T23:23:11.420Z,99908.55
2018-02-02T23:25:38.985Z,99902.58
2018-02-02T23:28:06.518Z,99900.58
2018-02-02T23:30:34.334Z,99891.55
2018-02-02T23:33:01.921Z,99904.83
2018-02-02T23:35:29.762Z,99890.45
2018-02-02T23:37:57.288Z,99891.35
2018-02-02T23:40:24.827Z,99896.27
2018-02-02T23:42:52.650Z,99899.03
2018-02-02T23:45:20.470Z,99891.52
2018-02-02T23:47:47.983Z,99892.31
2018-02-02T23:50:15.541Z,99892.05
2018-02-02T23:52:43.299Z,99886.77
2018-02-02T23:55:11.193Z,99885.22
2018-02-02T23:57:38.702Z,99882.94
